Time;durP1;ratioP1;P1;durP2;ratioP2;P2;SDS_P1;SDS_P2;PMS_P1;PMS_P2;Temp;Humidity;BMP_temperature;BMP_pressure;BME280_temperature;BME280_humidity;BME280_pressure;Samples;Min_cycle;Max_cycle;Signal;HPM_P1;HPM_P2
2022/09/10 00:01:40;;;;;;;11.60;5.45;;;7.70;1.00;;;7.62;74.32;99910.09;5047309;27;128320;-68
2022/09/10 00:04:12;;;;;;;11.98;5.90;;;7.60;1.00;;;7.58;74.49;99910.94;5062977;27;118473;-70
2022/09/10 00:06:42;;;;;;;10.15;5.50;;;7.60;1.00;;;7.58;74.54;99919.84;5062548;27;115894;-71
2022/09/10 00:09:12;;;;;;;10.07;5.20;;;7.60;1.00;;;7.58;74.46;99913.63;5041580;27;131013;-67
2022/09/10 00:11:42;;;;;;;14.02;6.38;;;7.60;1.00;;;7.53;74.82;99907.16;5045133;27;129852;-69
2022/09/10 00:14:19;;;;;;;12.73;5.90;;;7.50;1.00;;;7.52;74.53;99910.16;5042530;27;119158;-67
2022/09/10 00:16:49;;;;;;;12.40;5.65;;;7.60;1.00;;;7.51;74.67;99900.44;5045553;27;116744;-67
2022/09/10 00:19:18;;;;;;;11.77;5.57;;;7.50;1.00;;;7.50;75.04;99904.25;5041625;27;130081;-67
2022/09/10 00:21:47;;;;;;;13.13;5.70;;;7.50;1.00;;;7.48;75.12;99907.22;5041518;27;130111;-68
2022/09/10 00:24:16;;;;;;;11.82;5.15;;;7.50;1.00;;;7.46;75.23;99914.78;5042151;27;118868;-68
2022/09/10 00:26:44;;;;;;;9.75;5.40;;;7.50;1.00;;;7.45;74.99;99923.97;5042324;27;115494;-68
2022/09/10 00:29:16;;;;;;;10.93;5.90;;;7.40;1.00;;;7.43;75.50;99919.94;5057265;27;129806;-69
2022/09/10 00:31:45;;;;;;;11.15;5.80;;;7.30;1.00;;;7.36;75.45;99920.25;5057331;27;129446;-69
2022/09/10 00:34:14;;;;;;;11.45;5.13;;;7.30;1.00;;;7.33;75.85;99910.00;5040879;27;118804;-69
2022/09/10 00:36:45;;;;;;;11.23;5.03;;;7.30;1.00;;;7.31;75.68;99912.19;5043309;27;114676;-68
2022/09/10 00:39:19;;;;;;;10.07;6.03;;;7.20;1.00;;;7.25;76.18;99913.31;5043448;27;129885;-68
2022/09/10 00:41:49;;;;;;;10.30;5.63;;;7.30;1.00;;;7.20;76.54;99906.84;5041257;27;129455;-67
2022/09/10 00:44:58;;;;;;;10.70;5.38;;;7.20;1.00;;;7.14;76.61;99901.75;5043311;27;118143;-67
2022/09/10 00:47:33;;;;;;;9.75;5.65;;;7.20;1.00;;;7.13;76.45;99892.84;5057468;27;115813;-70
2022/09/10 00:50:12;;;;;;;9.50;5.18;;;7.30;1.00;;;7.17;76.63;99891.22;5041322;27;130482;-68
2022/09/10 00:52:41;;;;;;;10.35;4.85;;;7.20;1.00;;;7.17;76.13;99891.22;5041375;27;130226;-67
2022/09/10 00:55:11;;;;;;;8.65;4.45;;;7.20;1.00;;;7.10;77.06;99896.09;5040306;27;118908;-67
2022/09/10 00:57:42;;;;;;;8.63;3.88;;;7.20;1.00;;;7.08;77.02;99883.97;5027397;27;115626;-68
2022/09/10 01:00:14;;;;;;;7.72;3.63;;;7.10;1.00;;;7.07;76.63;99896.66;5039883;27;130707;-68
2022/09/10 01:02:44;;;;;;;8.05;3.90;;;7.00;1.00;;;7.04;76.64;99880.22;5060312;27;129596;-69
2022/09/10 01:05:16;;;;;;;6.88;3.75;;;7.00;1.00;;;6.98;77.56;99876.72;5040342;27;119717;-66
2022/09/10 01:07:44;;;;;;;8.15;4.13;;;6.90;1.00;;;6.93;77.38;99884.84;5040038;27;115653;-66
2022/09/10 01:10:20;;;;;;;8.60;4.18;;;6.90;1.00;;;6.89;77.62;99873.81;5041601;27;130252;-69
2022/09/10 01:13:31;;;;;;;8.23;4.10;;;7.00;1.00;;;6.87;77.73;99885.97;5039771;27;129552;-68
2022/09/10 01:16:13;;;;;;;7.90;4.53;;;6.90;1.00;;;6.84;77.76;99876.56;5040233;27;118565;-67
2022/09/10 01:18:56;;;;;;;7.55;3.90;;;6.80;1.00;;;6.86;78.09;99868.16;5043285;27;114700;-69
2022/09/10 01:21:32;;;;;;;7.85;3.80;;;6.80;1.00;;;6.81;78.47;99859.03;5039479;27;130277;-68
2022/09/10 01:24:44;;;;;;;6.68;4.15;;;6.80;1.00;;;6.79;78.19;99869.28;5042840;27;130051;-68
2022/09/10 01:27:39;;;;;;;7.50;3.83;;;6.90;1.00;;;6.78;78.23;99867.66;5039616;27;119320;-67
2022/09/10 01:30:16;;;;;;;9.25;4.43;;;6.80;1.00;;;6.81;77.94;99872.50;5041333;27;115261;-69
2022/09/10 01:32:57;;;;;;;7.75;4.05;;;6.90;1.00;;;6.78;78.21;99856.88;5025930;27;129039;-67
2022/09/10 01:35:39;;;;;;;9.05;3.90;;;6.90;1.00;;;6.76;78.10;99856.34;5042972;27;129261;-69
2022/09/10 01:38:14;;;;;;;7.40;3.58;;;6.90;1.00;;;6.76;78.70;99859.06;5026038;27;118742;-67
2022/09/10 01:40:45;;;;;;;7.88;4.13;;;6.80;1.00;;;6.73;78.51;99854.22;5056676;27;116762;-67
2022/09/10 01:43:19;;;;;;;7.82;4.10;;;6.80;1.00;;;6.72;78.50;99857.97;5056129;27;130502;-67
2022/09/10 01:46:09;;;;;;;7.53;3.63;;;6.70;1.00;;;6.67;78.70;99849.94;5042350;27;128835;-68
2022/09/10 01:49:02;;;;;;;;;;;6.70;1.00;;;6.65;78.77;99846.69;5044647;27;119179;-66
2022/09/10 01:51:50;;;;;;;7.40;3.90;;;6.70;1.00;;;6.65;78.52;99847.50;5043694;27;115094;-66
2022/09/10 01:54:36;;;;;;;8.48;3.80;;;6.60;1.00;;;6.63;78.42;99838.06;5042807;27;130104;-69
2022/09/10 01:57:17;;;;;;;8.80;3.60;;;6.70;1.00;;;6.68;78.45;99835.34;5029412;27;128500;-65
2022/09/10 01:59:55;;;;;;;7.13;3.83;;;6.80;1.00;;;6.66;78.19;99830.22;5044201;27;119158;-67
2022/09/10 02:02:28;;;;;;;5.97;3.30;;;6.80;1.00;;;6.63;78.54;99843.47;5043140;27;114986;-67
2022/09/10 02:04:59;;;;;;;7.25;3.60;;;6.70;1.00;;;6.63;78.22;99835.38;5062655;27;129526;-66
2022/09/10 02:07:30;;;;;;;8.63;3.50;;;6.70;1.00;;;6.62;78.60;99828.34;5042291;27;129600;-66
2022/09/10 02:09:59;;;;;;;7.85;3.75;;;6.70;1.00;;;6.61;78.33;99841.03;5045756;27;118575;-65
2022/09/10 02:12:29;;;;;;;6.47;3.67;;;6.70;1.00;;;6.61;78.21;99838.34;5042956;27;115029;-67
2022/09/10 02:15:21;;;;;;;6.63;3.67;;;6.70;1.00;;;6.57;78.80;99839.16;5046666;27;129423;-67
2022/09/10 02:17:57;;;;;;;5.18;3.20;;;6.60;1.00;;;6.57;78.71;99839.16;5042617;27;129648;-67
2022/09/10 02:20:29;;;;;;;6.60;3.65;;;6.60;1.00;;;6.57;78.72;99839.16;5045970;27;118539;-67
2022/09/10 02:23:00;;;;;;;6.57;3.47;;;6.60;1.00;;;6.57;78.17;99833.78;5043001;27;114737;-66
2022/09/10 02:25:33;;;;;;;7.60;3.10;;;6.60;1.00;;;6.53;78.54;99827.31;5062689;27;129672;-68
2022/09/10 02:28:04;;;;;;;5.40;3.10;;;6.60;1.00;;;6.53;78.99;99830.84;5059137;27;129773;-66
2022/09/10 02:30:35;;;;;;;7.18;3.22;;;6.60;1.00;;;6.54;78.48;99834.31;5042604;27;118973;-70
2022/09/10 02:33:04;;;;;;;8.13;3.25;;;6.50;1.00;;;6.48;78.89;99831.66;5042914;27;116238;-68
2022/09/10 02:35:32;;;;;;;5.90;3.47;;;6.50;1.00;;;6.50;78.52;99827.88;5045254;27;129708;-71
2022/09/10 02:38:01;;;;;;;6.97;3.75;;;6.50;1.00;;;6.50;78.64;99835.94;5041986;27;129571;-68
2022/09/10 02:40:30;;;;;;;6.10;3.58;;;6.50;1.00;;;6.45;78.40;99831.38;5046241;27;119090;-66
2022/09/10 02:42:59;;;;;;;6.38;3.38;;;6.60;1.00;;;6.43;78.45;99828.97;5028660;27;114645;-66
2022/09/10 02:45:29;;;;;;;7.55;4.28;;;6.50;1.00;;;6.42;78.83;99821.97;5044952;27;130529;-71
2022/09/10 02:48:03;;;;;;;6.53;3.47;;;6.50;1.00;;;6.39;78.57;99814.44;5043286;27;129583;-68
2022/09/10 02:50:33;;;;;;;6.15;3.13;;;6.50;1.00;;;6.41;78.64;99817.66;5045571;27;119136;-70
2022/09/10 02:53:02;;;;;;;6.47;2.90;;;6.50;1.00;;;6.41;78.34;99814.97;5045075;27;116896;-68
2022/09/10 02:55:31;;;;;;;6.93;3.40;;;6.50;1.00;;;6.39;78.35;99806.34;5044627;27;130040;-69
2022/09/10 02:58:00;;;;;;;6.78;3.22;;;6.50;1.00;;;6.44;78.09;99814.41;5041554;27;129961;-73
2022/09/10 03:00:30;;;;;;;5.85;2.97;;;6.50;1.00;;;6.40;78.51;99802.56;5044868;27;118664;-72
2022/09/10 03:03:01;;;;;;;5.47;3.10;;;6.50;1.00;;;6.39;78.85;99806.34;5042296;27;114829;-68
2022/09/10 03:05:30;;;;;;;8.90;2.95;;;6.40;1.00;;;6.36;78.83;99801.50;5028253;27;130686;-68
2022/09/10 03:07:59;;;;;;;5.13;2.70;;;6.40;1.00;;;6.32;78.74;99800.44;5041710;27;130052;-70
2022/09/10 03:10:28;;;;;;;7.40;3.25;;;6.40;1.00;;;6.33;78.69;99807.47;5044813;27;118618;-68
2022/09/10 03:12:57;;;;;;;5.78;3.00;;;6.40;1.00;;;6.34;78.82;99803.66;5043618;27;116075;-68
2022/09/10 03:15:25;;;;;;;5.78;3.20;;;6.40;1.00;;;6.34;78.23;99809.06;5027783;27;129546;-66
2022/09/10 03:17:54;;;;;;;5.72;2.83;;;6.40;1.00;;;6.29;78.74;99790.22;5041208;27;129980;-67
2022/09/10 03:20:25;;;;;;;7.03;3.00;;;6.30;1.00;;;6.31;78.75;99793.47;5042833;27;118880;-67
2022/09/10 03:22:56;;;;;;;6.93;3.20;;;6.30;1.00;;;6.30;78.72;99797.22;5045137;27;115560;-66
2022/09/10 03:25:24;;;;;;;7.22;3.10;;;6.30;1.00;;;6.29;78.73;99795.59;5041451;27;129773;-69
2022/09/10 03:27:59;;;;;;;5.07;2.70;;;6.30;1.00;;;6.26;78.87;99788.06;5042337;27;129346;-67
2022/09/10 03:30:28;;;;;;;6.22;2.83;;;6.30;1.00;;;6.29;78.77;99790.22;5041634;27;118964;-66
2022/09/10 03:32:57;;;;;;;5.47;2.60;;;6.30;1.00;;;6.31;78.83;99790.75;5044920;27;114829;-67
2022/09/10 03:35:27;;;;;;;5.88;3.08;;;6.30;1.00;;;6.33;78.32;99790.47;5040944;27;129920;-67
2022/09/10 03:37:56;;;;;;;6.03;2.78;;;6.30;1.00;;;6.30;78.15;99791.84;5044571;27;129178;-68
2022/09/10 03:40:24;;;;;;;6.80;3.03;;;6.30;1.00;;;6.33;78.54;99795.84;5041427;27;119187;-67
2022/09/10 03:42:53;;;;;;;6.63;3.05;;;6.30;1.00;;;6.35;78.00;99791.00;5044690;27;115478;-69
2022/09/10 03:45:21;;;;;;;7.65;3.20;;;6.40;1.00;;;6.35;78.07;99794.50;5040943;27;130560;-66
2022/09/10 03:47:50;;;;;;;5.90;2.83;;;6.30;1.00;;;6.34;78.06;99787.47;5040916;27;129867;-66
2022/09/10 03:50:20;;;;;;;5.97;3.15;;;6.40;1.00;;;6.35;77.87;99799.88;5027715;27;118624;-70
2022/09/10 03:52:50;;;;;;;4.68;2.58;;;6.40;1.00;;;6.40;77.71;99781.00;5044572;27;114494;-66
2022/09/10 03:55:19;;;;;;;7.10;2.88;;;6.40;1.00;;;6.45;77.66;99790.94;5040621;27;130303;-66
2022/09/10 03:57:47;;;;;;;6.15;2.67;;;6.40;1.00;;;6.48;77.15;99787.69;5040671;27;130071;-68
2022/09/10 04:00:17;;;;;;;5.80;2.88;;;6.40;1.00;;;6.53;77.03;99789.56;5044392;27;118375;-67
2022/09/10 04:02:47;;;;;;;5.85;3.15;;;6.40;1.00;;;6.55;77.26;99798.19;5058492;27;114841;-68
2022/09/10 04:05:16;;;;;;;7.00;3.35;;;6.40;1.00;;;6.60;76.98;99800.88;5040524;27;129887;-67
2022/09/10 04:07:44;;;;;;;7.60;3.35;;;6.40;1.00;;;6.63;76.42;99794.91;5040985;27;129480;-75
2022/09/10 04:10:16;;;;;;;6.22;3.05;;;6.50;1.00;;;6.67;76.33;99795.97;5042715;27;118525;-69
2022/09/10 04:12:44;;;;;;;10.48;5.63;;;6.50;1.00;;;6.76;76.06;99802.41;5040922;27;115846;-66
2022/09/10 04:15:13;;;;;;;7.15;4.05;;;6.60;1.00;;;6.84;75.52;99801.03;5043700;27;130076;-66
2022/09/10 04:17:41;;;;;;;6.47;3.47;;;6.60;1.00;;;6.83;75.32;99797.50;5040504;27;129614;-68
2022/09/10 04:20:11;;;;;;;8.80;3.88;;;6.60;1.00;;;6.82;75.39;99798.59;5044122;27;118459;-69
2022/09/10 04:22:39;;;;;;;8.25;3.92;;;6.70;1.00;;;6.87;75.07;99794.25;5040691;27;115241;-71
2022/09/10 04:25:09;;;;;;;7.93;3.88;;;6.80;1.00;;;6.97;74.66;99794.97;5040288;27;130543;-67
2022/09/10 04:27:42;;;;;;;5.47;2.97;;;6.90;1.00;;;7.08;74.33;99801.13;5057967;27;130156;-68
2022/09/10 04:30:12;;;;;;;6.60;3.25;;;6.90;1.00;;;7.25;73.59;99795.31;5044094;27;118819;-71
2022/09/10 04:32:41;;;;;;;8.85;3.17;;;7.00;1.00;;;7.19;73.14;99797.25;5040719;27;115308;-67
2022/09/10 04:35:14;;;;;;;7.65;3.58;;;7.00;1.00;;;7.38;72.89;99804.66;5043247;27;130058;-66
2022/09/10 04:37:43;;;;;;;7.78;3.78;;;7.10;1.00;;;7.48;71.90;99796.50;5040137;27;129877;-67
2022/09/10 04:40:12;;;;;;;6.90;3.50;;;7.10;1.00;;;7.52;72.10;99805.63;5043953;27;118616;-67
2022/09/10 04:42:42;;;;;;;9.10;4.35;;;7.20;1.00;;;7.68;71.09;99803.59;5040339;27;114915;-66
2022/09/10 04:45:11;;;;;;;6.75;3.35;;;7.30;1.00;;;7.80;70.91;99803.22;5041365;27;130025;-70
2022/09/10 04:47:40;;;;;;;7.47;2.90;;;7.30;1.00;;;7.78;70.00;99807.31;5040092;27;129435;-69
2022/09/10 04:50:10;;;;;;;6.65;3.10;;;7.40;1.00;;;8.07;69.63;99807.25;5043448;27;118582;-66
2022/09/10 04:52:39;;;;;;;5.20;3.05;;;7.60;1.00;;;8.33;68.25;99801.56;5042124;27;115280;-66
2022/09/10 04:55:09;;;;;;;5.78;2.95;;;7.70;1.00;;;8.46;67.89;99806.28;5042930;27;129380;-66
2022/09/10 04:57:38;;;;;;;6.85;3.10;;;7.80;1.00;;;8.51;67.60;99808.94;5056722;27;130230;-71
2022/09/10 05:00:11;;;;;;;6.45;2.90;;;7.80;1.00;;;8.52;67.30;99799.72;5056912;27;118881;-70
2022/09/10 05:02:40;;;;;;;5.88;2.78;;;7.90;1.00;;;8.74;66.64;99796.47;5043504;27;115818;-67
2022/09/10 05:05:09;;;;;;;5.93;3.03;;;8.00;1.00;;;8.86;65.95;99801.44;5041039;27;130663;-66
2022/09/10 05:07:39;;;;;;;5.88;3.30;;;8.10;1.00;;;8.93;65.90;99796.47;5039569;27;130557;-69
2022/09/10 05:10:09;;;;;;;6.93;3.15;;;8.20;1.00;;;9.15;65.23;99789.66;5040710;27;119056;-66
2022/09/10 05:12:38;;;;;;;7.82;3.53;;;8.30;1.00;;;9.21;64.29;99793.91;5043448;27;114607;-67
2022/09/10 05:15:10;;;;;;;5.57;2.92;;;8.40;1.00;;;9.15;63.87;99792.38;5040969;27;130016;-70
2022/09/10 05:17:38;;;;;;;5.93;3.17;;;8.40;1.00;;;9.06;64.63;99786.00;5056616;27;129418;-67
2022/09/10 05:20:09;;;;;;;6.85;3.08;;;8.30;1.00;;;9.28;64.06;99783.47;5039855;27;119004;-67
2022/09/10 05:22:44;;;;;;;7.10;2.75;;;8.40;1.00;;;9.39;63.30;99778.69;5059787;27;114496;-67
2022/09/10 05:25:12;;;;;;;8.30;3.63;;;8.60;1.00;;;9.41;62.86;99781.94;5040483;27;130242;-71
2022/09/10 05:27:41;;;;;;;7.15;2.78;;;8.60;1.00;;;9.62;62.73;99787.78;5042678;27;129809;-68
2022/09/10 05:30:16;;;;;;;6.07;2.78;;;8.80;1.00;;;9.63;62.31;99785.88;5025808;27;118647;-69
2022/09/10 05:32:46;;;;;;;7.38;2.90;;;8.80;1.00;;;9.86;61.79;99781.41;5043201;27;114991;-68
2022/09/10 05:35:15;;;;;;;7.93;3.20;;;8.90;1.00;;;9.82;61.49;99783.91;5039420;27;130229;-68
2022/09/10 05:37:46;;;;;;;8.82;3.47;;;8.90;1.00;;;10.04;61.27;99788.66;5042790;27;130101;-68
2022/09/10 05:40:16;;;;;;;5.68;3.00;;;9.00;1.00;;;10.25;60.47;99782.81;5026099;27;118455;-71
2022/09/10 05:42:44;;;;;;;6.78;3.03;;;9.20;1.00;;;10.33;59.68;99781.34;5060101;27;115100;-67
2022/09/10 05:45:17;;;;;;;5.80;2.55;;;9.30;1.00;;;10.50;59.69;99786.16;5039007;27;130535;-68
2022/09/10 05:47:46;;;;;;;5.72;3.00;;;9.30;1.00;;;10.55;59.42;99786.03;5042617;27;129956;-71
2022/09/10 05:50:20;;;;;;;6.53;2.90;;;9.40;1.00;;;10.53;59.42;99785.53;5039425;27;119238;-72
2022/09/10 05:52:49;;;;;;;6.43;3.28;;;9.40;1.00;;;10.58;59.30;99786.25;5025959;27;114703;-69
2022/09/10 05:55:19;;;;;;;7.63;3.08;;;9.40;1.00;;;10.66;59.34;99787.44;5039126;27;129940;-71
2022/09/10 05:57:49;;;;;;;7.57;3.20;;;9.50;1.00;;;10.61;58.91;99779.38;5039083;27;129516;-69
2022/09/10 06:00:22;;;;;;;6.20;2.83;;;9.60;1.00;;;10.67;59.56;99777.38;5039716;27;118910;-71
2022/09/10 06:02:58;;;;;;;10.35;3.42;;;9.60;1.00;;;10.86;58.36;99769.06;5043103;27;115132;-70
2022/09/10 06:05:34;;;;;;;8.32;3.08;;;9.70;1.00;;;11.00;58.62;99779.88;5039235;27;130106;-71
2022/09/10 06:08:04;;;;;;;6.28;2.85;;;9.80;1.00;;;11.10;57.91;99775.03;5040373;27;129598;-68
2022/09/10 06:10:34;;;;;;;8.40;3.53;;;9.90;1.00;;;11.03;57.83;99769.25;5040645;27;118832;-68
2022/09/10 06:13:03;;;;;;;6.78;3.00;;;9.90;1.00;;;11.21;57.97;99763.91;5039459;27;115112;-71
2022/09/10 06:15:35;;;;;;;9.88;3.90;;;10.00;1.00;;;11.51;57.10;99765.88;5038673;27;129826;-65
2022/09/10 06:18:03;;;;;;;7.28;3.30;;;10.30;1.00;;;11.62;56.76;99776.47;5040466;27;129397;-73
2022/09/10 06:20:33;;;;;;;7.10;3.60;;;10.40;1.00;;;11.61;56.51;99766.72;5042477;27;118556;-68
2022/09/10 06:23:03;;;;;;;8.13;3.55;;;10.20;1.00;;;11.50;56.91;99766.19;5039727;27;114990;-71
2022/09/10 06:25:32;;;;;;;10.07;3.55;;;10.10;1.00;;;11.55;56.69;99767.97;5042339;27;129614;-69
2022/09/10 06:28:01;;;;;;;7.07;3.60;;;10.30;1.00;;;11.61;56.90;99761.25;5038776;27;129927;-70
2022/09/10 06:30:30;;;;;;;7.45;3.45;;;10.40;1.00;;;11.51;56.75;99759.63;5042322;27;118307;-67
2022/09/10 06:33:00;;;;;;;6.55;3.60;;;10.40;1.00;;;11.55;56.80;99751.66;5040840;27;115528;-67
2022/09/10 06:35:30;;;;;;;7.97;4.03;;;10.40;1.00;;;11.45;57.47;99748.09;5041385;27;130012;-68
2022/09/10 06:37:59;;;;;;;6.78;3.80;;;10.50;1.00;;;11.88;56.93;99738.53;5062447;27;129144;-67
2022/09/10 06:40:28;;;;;;;8.93;4.00;;;10.80;1.00;;;12.16;55.81;99744.56;5042070;27;118719;-68
2022/09/10 06:43:00;;;;;;;7.22;3.97;;;11.00;1.00;;;11.82;56.65;99740.59;5046077;27;115927;-67
2022/09/10 06:45:56;;;;;;;9.05;3.70;;;10.80;1.00;;;11.93;56.71;99734.91;5045434;27;130596;-69
2022/09/10 06:48:52;;;;;;;6.28;3.55;;;10.80;1.00;;;12.13;55.63;99730.81;5044904;27;129361;-69
2022/09/10 06:51:22;;;;;;;6.35;3.67;;;10.90;1.00;;;12.25;56.20;99741.06;5045703;27;118222;-68
2022/09/10 06:53:52;;;;;;;7.90;3.47;;;11.10;1.00;;;12.43;55.36;99745.44;5042300;27;114993;-69
2022/09/10 06:56:22;;;;;;;7.18;3.80;;;11.20;1.00;;;12.32;55.59;99735.97;5044714;27;131141;-71
2022/09/10 06:58:51;;;;;;;5.75;3.25;;;11.10;1.00;;;12.48;55.46;99739.03;5041740;27;130030;-73
2022/09/10 07:01:22;;;;;;;7.90;3.95;;;11.10;1.00;;;12.51;55.14;99739.22;5041871;27;119007;-71
2022/09/10 07:04:03;;;;;;;8.48;3.78;;;11.30;1.00;;;12.74;55.04;99737.13;5045436;27;115488;-69
2022/09/10 07:06:34;;;;;;;6.35;3.80;;;11.40;1.00;;;13.13;53.57;99735.38;5041511;27;129926;-69
2022/09/10 07:09:15;;;;;;;8.45;3.90;;;11.70;1.00;;;13.42;52.74;99744.78;5044775;27;129138;-70
2022/09/10 07:11:53;;;;;;;7.93;4.53;;;12.00;1.00;;;13.39;52.54;99739.19;5042081;27;118590;-69
2022/09/10 07:14:23;;;;;;;7.38;3.60;;;12.00;1.00;;;13.52;52.20;99742.84;5041781;27;115841;-71
2022/09/10 07:16:52;;;;;;;11.90;5.03;;;12.20;1.00;;;13.87;51.77;99749.00;5041540;27;129888;-70
2022/09/10 07:19:25;;;;;;;9.35;3.97;;;12.50;1.00;;;14.07;51.34;99741.19;5041257;27;129673;-68
2022/09/10 07:21:54;;;;;;;8.80;3.88;;;12.50;1.00;;;14.21;51.06;99736.31;5044965;27;119118;-68
2022/09/10 07:24:23;;;;;;;7.88;4.65;;;12.70;1.00;;;14.31;50.35;99735.91;5042044;27;114579;-67
2022/09/10 07:27:01;;;;;;;6.28;4.00;;;12.70;1.00;;;14.06;51.05;99728.69;5041308;27;129845;-67
2022/09/10 07:29:30;;;;;;;10.48;3.90;;;12.60;1.00;;;13.72;51.88;99741.34;5044545;27;130026;-70
2022/09/10 07:32:00;;;;;;;9.85;4.47;;;12.50;1.00;;;13.61;52.73;99741.69;5041415;27;119136;-68
2022/09/10 07:34:30;;;;;;;7.65;3.65;;;12.50;1.00;;;14.06;51.41;99745.06;5044617;27;115091;-70
2022/09/10 07:36:59;;;;;;;8.80;4.40;;;12.60;1.00;;;14.08;50.97;99731.88;5044227;27;129723;-69
2022/09/10 07:39:27;;;;;;;7.15;4.10;;;12.70;1.00;;;14.23;51.36;99731.31;5042245;27;129473;-76
2022/09/10 07:41:59;;;;;;;11.45;3.53;;;12.90;1.00;;;14.31;51.20;99735.91;5041631;27;118541;-70
2022/09/10 07:44:30;;;;;;;7.90;4.10;;;12.90;1.00;;;14.07;52.07;99735.72;5044676;27;114891;-71
2022/09/10 07:47:03;;;;;;;6.35;3.80;;;12.50;1.00;;;13.96;52.28;99736.13;5044217;27;130149;-72
2022/09/10 07:49:34;;;;;;;6.40;3.55;;;12.40;1.00;;;13.62;53.73;99735.13;5041426;27;129517;-70
2022/09/10 07:52:05;;;;;;;9.02;3.58;;;12.20;1.00;;;13.61;53.79;99725.31;5041341;27;118616;-70
2022/09/10 07:54:41;;;;;;;8.07;4.15;;;12.10;1.00;;;13.47;54.38;99724.75;5041469;27;115222;-68
2022/09/10 07:57:10;;;;;;;8.20;4.40;;;12.20;1.00;;;13.43;54.91;99729.22;5043824;27;130045;-69
2022/09/10 07:59:38;;;;;;;7.03;3.88;;;12.20;1.00;;;13.61;55.04;99719.88;5040590;27;130305;-71
2022/09/10 08:02:12;;;;;;;6.32;3.53;;;12.30;1.00;;;13.73;54.50;99723.84;5044588;27;119071;-70
2022/09/10 08:04:45;;;;;;;7.78;4.00;;;12.30;1.00;;;14.00;54.27;99720.66;5041086;27;115969;-67
2022/09/10 08:07:16;;;;;;;6.80;3.70;;;12.70;1.00;;;14.34;53.99;99724.34;5041853;27;130537;-69
2022/09/10 08:09:44;;;;;;;8.95;3.08;;;12.90;1.00;;;14.31;52.98;99719.53;5040689;27;129486;-68
2022/09/10 08:12:17;;;;;;;7.03;3.17;;;12.90;1.00;;;14.39;53.19;99710.47;5040718;27;118864;-68
2022/09/10 08:14:47;;;;;;;7.32;3.40;;;13.10;1.00;;;14.78;52.28;99715.06;5044257;27;113925;-70
2022/09/10 08:17:16;;;;;;;7.43;3.25;;;13.30;1.00;;;14.84;52.01;99711.78;5026776;27;130007;-71
2022/09/10 08:19:49;;;;;;;8.60;3.65;;;13.30;1.00;;;15.04;52.16;99710.16;5040433;27;129391;-69
2022/09/10 08:22:19;;;;;;;5.05;2.67;;;13.50;1.00;;;15.17;51.48;99704.72;5027017;27;118279;-70
2022/09/10 08:24:54;;;;;;;6.03;2.97;;;13.60;1.00;;;15.41;51.35;99706.72;5040811;27;116684;-69
2022/09/10 08:27:26;;;;;;;7.78;3.03;;;13.70;1.00;;;15.61;50.99;99696.84;5043975;27;130163;-69
2022/09/10 08:29:56;;;;;;;6.53;3.50;;;13.90;1.00;;;14.88;51.80;99700.97;5040693;27;129124;-71
2022/09/10 08:32:27;;;;;;;7.55;3.72;;;13.40;1.00;;;14.97;52.51;99701.69;5040653;27;118628;-71
2022/09/10 08:34:57;;;;;;;7.18;3.22;;;13.60;1.00;;;15.52;51.99;99685.19;5040868;27;114961;-69
2022/09/10 08:37:29;;;;;;;6.97;3.30;;;14.00;1.00;;;16.13;51.04;99682.50;5026660;27;128722;-72
2022/09/10 08:39:58;;;;;;;6.47;3.70;;;14.60;1.00;;;16.46;49.87;99676.03;5040147;27;129503;-70
2022/09/10 08:42:38;;;;;;;11.63;3.45;;;14.80;1.00;;;15.93;50.00;99680.69;5040510;27;118631;-68
2022/09/10 08:45:13;;;;;;;9.38;3.17;;;14.50;1.00;;;15.82;50.48;99670.19;5043863;27;114706;-69
2022/09/10 08:47:53;;;;;;;6.03;2.80;;;14.30;1.00;;;15.61;52.37;99669.47;5043255;27;128942;-69
2022/09/10 08:50:35;;;;;;;8.32;3.00;;;14.40;1.00;;;16.38;50.62;99667.94;5041340;27;129622;-70
2022/09/10 08:53:18;;;;;;;6.82;3.38;;;15.10;1.00;;;16.95;48.62;99668.81;5043690;27;118717;-69
2022/09/10 08:55:48;;;;;;;5.97;2.90;;;15.40;1.00;;;16.81;48.37;99670.00;5040500;27;114561;-70
2022/09/10 08:58:22;;;;;;;6.55;2.78;;;15.30;1.00;;;16.92;48.80;99661.28;5042749;27;129654;-69
2022/09/10 09:00:56;;;;;;;5.82;2.63;;;15.20;1.00;;;17.11;47.49;99650.47;5039945;27;129436;-71
2022/09/10 09:03:33;;;;;;;4.63;2.10;;;15.20;1.00;;;16.71;48.14;99645.81;5043615;27;118635;-67
2022/09/10 09:06:07;;;;;;;5.63;2.57;;;14.90;1.00;;;16.32;49.26;99642.75;5040671;27;115092;-68
2022/09/10 09:08:49;;;;;;;6.00;2.28;;;14.70;1.00;;;16.61;49.44;99643.56;5042911;27;129004;-67
2022/09/10 09:11:33;;;;;;;7.55;2.13;;;15.10;1.00;;;16.28;49.21;99631.72;5025762;27;128747;-69
2022/09/10 09:14:38;;;;;;;6.05;2.45;;;14.90;1.00;;;16.20;50.00;99629.09;5040048;27;119310;-68
2022/09/10 09:17:32;;;;;;;8.48;2.60;;;15.00;1.00;;;16.87;48.40;99624.75;5040317;27;115755;-69
2022/09/10 09:20:14;;;;;;;6.47;2.40;;;15.40;1.00;;;17.35;46.69;99626.75;5042840;27;129765;-72
2022/09/10 09:22:53;;;;;;;4.05;2.42;;;15.70;1.00;;;17.66;46.03;99636.13;5039460;27;129617;-71
2022/09/10 09:25:33;;;;;;;5.53;2.53;;;15.80;1.00;;;17.96;45.26;99623.50;5042750;27;118682;-69
2022/09/10 09:28:08;;;;;;;5.30;2.25;;;16.00;1.00;;;18.03;44.61;99622.06;5041638;27;114983;-72
2022/09/10 09:30:48;;;;;;;5.85;2.50;;;16.00;1.00;;;17.16;45.50;99617.28;5039630;27;130982;-71
2022/09/10 09:33:22;;;;;;;4.28;2.22;;;15.50;1.00;;;16.83;46.68;99610.13;5042785;27;129205;-72
2022/09/10 09:35:56;;;;;;;7.18;2.70;;;15.30;1.00;;;16.58;47.58;99611.38;5039941;27;119174;-69
2022/09/10 09:38:32;;;;;;;4.90;2.47;;;15.40;1.00;;;17.19;46.55;99602.88;5043096;27;114337;-67
2022/09/10 09:41:07;;;;;;;4.80;2.67;;;15.70;1.00;;;17.61;45.11;99607.00;5056239;27;129802;-69
2022/09/10 09:43:55;;;;;;;3.45;1.83;;;16.00;1.00;;;17.97;44.43;99607.84;5042667;27;129124;-70
2022/09/10 09:46:25;;;;;;;7.70;2.67;;;16.10;1.00;;;18.18;44.26;99607.50;5039786;27;119289;-70
2022/09/10 09:49:01;;;;;;;4.90;2.47;;;16.40;1.00;;;18.30;43.55;99590.88;5043017;27;114659;-70
2022/09/10 09:51:34;;;;;;;7.13;2.45;;;16.30;1.00;;;18.03;43.02;99589.13;5056358;27;131598;-72
2022/09/10 09:54:11;;;;;;;6.25;3.00;;;16.20;1.00;;;17.90;43.58;99592.03;5040705;27;129444;-69
2022/09/10 09:56:46;;;;;;;6.13;2.78;;;16.30;1.00;;;17.55;44.70;99581.78;5041004;27;118923;-72
2022/09/10 09:59:27;;;;;;;9.82;2.50;;;16.00;1.00;;;18.20;44.26;99585.97;5041716;27;115228;-72
2022/09/10 10:02:00;;;;;;;4.40;2.20;;;16.60;1.00;;;18.20;42.38;99577.75;5040746;27;131813;-71
2022/09/10 10:04:32;;;;;;;9.13;2.92;;;16.60;1.00;;;18.41;42.81;99571.88;5040688;27;129525;-71
2022/09/10 10:07:03;;;;;;;8.38;2.17;;;16.70;1.00;;;18.43;42.98;99574.25;5042708;27;119047;-70
2022/09/10 10:09:37;;;;;;;6.22;2.80;;;16.80;1.00;;;19.01;41.57;99571.44;5042626;27;115695;-71
2022/09/10 10:12:13;;;;;;;8.23;2.58;;;17.00;1.00;;;19.09;40.64;99571.53;5043875;27;129925;-70
2022/09/10 10:14:42;;;;;;;8.05;2.92;;;16.90;1.00;;;18.60;41.48;99562.81;5044136;27;129516;-73
2022/09/10 10:17:39;;;;;;;6.75;2.40;;;16.70;1.00;;;18.03;42.60;99561.66;5044306;27;119051;-70
2022/09/10 10:20:12;;;;;;;4.70;2.10;;;16.40;1.00;;;18.26;42.86;99554.31;4989025;27;115224;-73
2022/09/10 10:22:41;;;;;;;5.05;2.50;;;16.50;1.00;;;18.27;42.86;99560.59;5043756;27;129868;-71
2022/09/10 10:25:40;;;;;;;8.05;2.30;;;16.50;1.00;;;18.43;42.25;99557.78;5029191;27;129895;-71
2022/09/10 10:28:20;;;;;;;5.30;2.30;;;16.50;1.00;;;18.57;42.18;99551.75;5043965;27;118866;-70
2022/09/10 10:30:53;;;;;;;4.97;2.33;;;16.60;1.00;;;18.85;42.33;99548.75;5046069;27;115039;-70
2022/09/10 10:33:28;;;;;;;5.03;2.33;;;16.80;1.00;;;18.82;41.90;99557.69;5043154;27;130721;-69
2022/09/10 10:36:10;;;;;;;5.03;2.33;;;16.90;1.00;;;18.36;42.97;99557.66;5044083;27;129602;-69
2022/09/10 10:38:41;;;;;;;10.60;2.53;;;16.60;1.00;;;18.53;42.26;99557.19;5042431;27;118713;-69
2022/09/10 10:42:03;;;;;;;7.30;2.35;;;16.50;1.00;;;17.91;43.23;99552.41;5043801;27;115379;-68
2022/09/10 10:44:58;;;;;;;6.60;3.40;;;16.20;1.00;;;17.70;43.62;99552.72;5027773;27;130134;-71
2022/09/10 10:47:42;;;;;;;7.43;2.45;;;16.00;1.00;;;17.73;43.75;99551.19;5045299;27;129011;-74
2022/09/10 10:50:28;;;;;;;6.68;2.47;;;16.00;1.00;;;17.63;43.82;99538.06;5043611;27;118754;-72
2022/09/10 10:53:25;;;;;;;8.30;2.15;;;15.90;1.00;;;17.17;44.91;99533.88;5043922;27;115302;-69